FFT362 KABY-KMSY
Flight info
| Callsign | FFT362 |
|---|---|
| Flight time | 1h 1m |
| Altitude | 30000 |
| Route | SJI MNSTR1 |
| Aircraft | A320/M-SDE3FGHIRWY/LB1 |
Departure
| Time | 2026-04-25 21:44 |
|---|---|
| Airport | Southwest Georgia Regional Airport (KABY) |
Arrival
| Time | 2026-04-25 22:46 |
|---|---|
| Airport | Louis Armstrong New Orleans International Airport (KMSY) |
| Time | Latitude | Longitude | Altitude | Speed | Heading |
|---|---|---|---|---|---|
| 2026-04-25 21:33 | 31.53317 | -84.18939 | 206 ft | 0 kts | 236° |
| 2026-04-25 21:36 | 31.53321 | -84.18931 | 206 ft | 2 kts | 236° |
| 2026-04-25 21:36 | 31.53330 | -84.18916 | 213 ft | 2 kts | 236° |
| 2026-04-25 21:37 | 31.53339 | -84.18900 | 218 ft | 2 kts | 236° |
| 2026-04-25 21:37 | 31.53345 | -84.18890 | 214 ft | 2 kts | 236° |
| 2026-04-25 21:37 | 31.53349 | -84.18883 | 218 ft | 0 kts | 236° |
| 2026-04-25 21:38 | 31.53349 | -84.18884 | 218 ft | 0 kts | 236° |
| 2026-04-25 21:38 | 31.53353 | -84.18898 | 216 ft | 4 kts | 304° |
| 2026-04-25 21:38 | 31.53384 | -84.18934 | 210 ft | 8 kts | 309° |
| 2026-04-25 21:39 | 31.53425 | -84.18992 | 214 ft | 11 kts | 305° |
| 2026-04-25 21:39 | 31.53474 | -84.19073 | 211 ft | 14 kts | 305° |
| 2026-04-25 21:39 | 31.53553 | -84.19131 | 209 ft | 15 kts | 19° |
| 2026-04-25 21:39 | 31.53637 | -84.19049 | 207 ft | 17 kts | 42° |
| 2026-04-25 21:40 | 31.53728 | -84.18953 | 212 ft | 18 kts | 45° |
| 2026-04-25 21:40 | 31.53825 | -84.18849 | 205 ft | 20 kts | 42° |
| 2026-04-25 21:40 | 31.53937 | -84.18730 | 213 ft | 24 kts | 40° |
| 2026-04-25 21:40 | 31.54067 | -84.18593 | 210 ft | 26 kts | 43° |
| 2026-04-25 21:41 | 31.54169 | -84.18489 | 209 ft | 13 kts | 41° |
| 2026-04-25 21:41 | 31.54222 | -84.18478 | 205 ft | 7 kts | 322° |
| 2026-04-25 21:41 | 31.54275 | -84.18536 | 201 ft | 14 kts | 310° |
| 2026-04-25 21:41 | 31.54257 | -84.18602 | 204 ft | 0 kts | 218° |
| 2026-04-25 21:44 | 31.54208 | -84.18649 | 205 ft | 40 kts | 221° |
| 2026-04-25 21:44 | 31.53750 | -84.19137 | 219 ft | 137 kts | 222° |
| 2026-04-25 21:44 | 31.52102 | -84.21132 | 1707 ft | 188 kts | 238° |
| 2026-04-25 21:45 | 31.51565 | -84.22652 | 2536 ft | 216 kts | 257° |
| 2026-04-25 21:45 | 31.51267 | -84.23770 | 3310 ft | 215 kts | 239° |
| 2026-04-25 21:45 | 31.49755 | -84.25142 | 5269 ft | 204 kts | 211° |
| 2026-04-25 21:45 | 31.48728 | -84.26237 | 6516 ft | 207 kts | 239° |
| 2026-04-25 21:46 | 31.48303 | -84.27930 | 7263 ft | 233 kts | 266° |
| 2026-04-25 21:46 | 31.48279 | -84.29971 | 7830 ft | 269 kts | 266° |
| 2026-04-25 21:46 | 31.48022 | -84.32286 | 8405 ft | 304 kts | 260° |
| 2026-04-25 21:46 | 31.47608 | -84.34858 | 8986 ft | 337 kts | 259° |
| 2026-04-25 21:47 | 31.47126 | -84.37670 | 9607 ft | 366 kts | 259° |
| 2026-04-25 21:47 | 31.46612 | -84.40663 | 10489 ft | 379 kts | 259° |
| 2026-04-25 21:47 | 31.46092 | -84.43689 | 11258 ft | 387 kts | 259° |
| 2026-04-25 21:47 | 31.45557 | -84.46798 | 12086 ft | 392 kts | 260° |
| 2026-04-25 21:48 | 31.45019 | -84.49953 | 13019 ft | 397 kts | 260° |
| 2026-04-25 21:48 | 31.44473 | -84.53141 | 13890 ft | 403 kts | 260° |
| 2026-04-25 21:48 | 31.43914 | -84.56379 | 14695 ft | 407 kts | 260° |
| 2026-04-25 21:48 | 31.43351 | -84.59644 | 15530 ft | 412 kts | 260° |
| 2026-04-25 21:49 | 31.42782 | -84.62942 | 16408 ft | 416 kts | 260° |
| 2026-04-25 21:49 | 31.42205 | -84.66279 | 17274 ft | 420 kts | 261° |
| 2026-04-25 21:49 | 31.41621 | -84.69656 | 18019 ft | 427 kts | 261° |
| 2026-04-25 21:49 | 31.41026 | -84.73092 | 18652 ft | 432 kts | 261° |
| 2026-04-25 21:50 | 31.40425 | -84.76560 | 19280 ft | 437 kts | 261° |
| 2026-04-25 21:50 | 31.39816 | -84.80067 | 19927 ft | 441 kts | 261° |
| 2026-04-25 21:50 | 31.39201 | -84.83605 | 20536 ft | 445 kts | 261° |
| 2026-04-25 21:50 | 31.38790 | -84.85961 | 20942 ft | 448 kts | 261° |
| 2026-04-25 21:51 | 31.37951 | -84.90768 | 21782 ft | 452 kts | 261° |
| 2026-04-25 21:51 | 31.37328 | -84.94329 | 22408 ft | 453 kts | 261° |
| 2026-04-25 21:51 | 31.36694 | -84.97944 | 23068 ft | 455 kts | 261° |
| 2026-04-25 21:51 | 31.36055 | -85.01583 | 23688 ft | 457 kts | 261° |
| 2026-04-25 21:52 | 31.35413 | -85.05237 | 24249 ft | 459 kts | 261° |
| 2026-04-25 21:52 | 31.34768 | -85.08895 | 24823 ft | 459 kts | 260° |
| 2026-04-25 21:52 | 31.34122 | -85.12554 | 25408 ft | 459 kts | 260° |
| 2026-04-25 21:52 | 31.33475 | -85.16215 | 26011 ft | 458 kts | 260° |
| 2026-04-25 21:53 | 31.32828 | -85.19866 | 26623 ft | 457 kts | 260° |
| 2026-04-25 21:53 | 31.32184 | -85.23497 | 27249 ft | 455 kts | 260° |
| 2026-04-25 21:53 | 31.31542 | -85.27112 | 27877 ft | 453 kts | 260° |
| 2026-04-25 21:53 | 31.30902 | -85.30704 | 28541 ft | 450 kts | 260° |
| 2026-04-25 21:54 | 31.30265 | -85.34276 | 29233 ft | 447 kts | 260° |
| 2026-04-25 21:54 | 31.29629 | -85.37838 | 29784 ft | 447 kts | 259° |
| 2026-04-25 21:54 | 31.28991 | -85.41408 | 30118 ft | 451 kts | 259° |
| 2026-04-25 21:55 | 31.27705 | -85.48580 | 29923 ft | 458 kts | 260° |
| 2026-04-25 21:55 | 31.27051 | -85.52220 | 30570 ft | 448 kts | 259° |
| 2026-04-25 21:55 | 31.26419 | -85.55684 | 31973 ft | 425 kts | 259° |
| 2026-04-25 21:55 | 31.25810 | -85.58985 | 33271 ft | 404 kts | 259° |
| 2026-04-25 21:56 | 31.25230 | -85.62117 | 34388 ft | 386 kts | 259° |
| 2026-04-25 21:56 | 31.24854 | -85.64145 | 34730 ft | 385 kts | 259° |
| 2026-04-25 21:56 | 31.24127 | -85.68304 | 34686 ft | 400 kts | 260° |
| 2026-04-25 21:56 | 31.23593 | -85.71617 | 33817 ft | 431 kts | 261° |
| 2026-04-25 21:57 | 31.23050 | -85.75185 | 33218 ft | 453 kts | 261° |
| 2026-04-25 21:57 | 31.22520 | -85.78659 | 34002 ft | 418 kts | 261° |
| 2026-04-25 21:57 | 31.22029 | -85.81858 | 34315 ft | 395 kts | 261° |
| 2026-04-25 21:57 | 31.21549 | -85.84966 | 34192 ft | 384 kts | 261° |
| 2026-04-25 21:58 | 31.21072 | -85.88050 | 33846 ft | 379 kts | 261° |
| 2026-04-25 21:58 | 31.20613 | -85.91014 | 33450 ft | 374 kts | 261° |
| 2026-04-25 21:58 | 31.20144 | -85.94049 | 33068 ft | 387 kts | 261° |
| 2026-04-25 21:58 | 31.19659 | -85.97200 | 32690 ft | 401 kts | 261° |
| 2026-04-25 21:59 | 31.19157 | -86.00479 | 32316 ft | 418 kts | 261° |
| 2026-04-25 21:59 | 31.18648 | -86.03808 | 31935 ft | 413 kts | 261° |
| 2026-04-25 21:59 | 31.18146 | -86.07089 | 31548 ft | 408 kts | 261° |
| 2026-04-25 22:00 | 31.17151 | -86.13579 | 30822 ft | 417 kts | 261° |
| 2026-04-25 22:00 | 31.16631 | -86.16995 | 30472 ft | 435 kts | 261° |
| 2026-04-25 22:00 | 31.16094 | -86.20536 | 30129 ft | 447 kts | 262° |
| 2026-04-25 22:00 | 31.15557 | -86.24084 | 29910 ft | 439 kts | 262° |
| 2026-04-25 22:01 | 31.15037 | -86.27502 | 29873 ft | 428 kts | 262° |
| 2026-04-25 22:01 | 31.14521 | -86.30882 | 29872 ft | 416 kts | 262° |
| 2026-04-25 22:01 | 31.13687 | -86.36301 | 29874 ft | 400 kts | 262° |
| 2026-04-25 22:02 | 31.13035 | -86.40515 | 29882 ft | 388 kts | 262° |
| 2026-04-25 22:02 | 31.12557 | -86.43593 | 29886 ft | 387 kts | 262° |
| 2026-04-25 22:02 | 31.12070 | -86.46739 | 29892 ft | 401 kts | 262° |
| 2026-04-25 22:02 | 31.11571 | -86.49992 | 29892 ft | 415 kts | 262° |
| 2026-04-25 22:03 | 31.11063 | -86.53320 | 29891 ft | 428 kts | 262° |
| 2026-04-25 22:03 | 31.10537 | -86.56788 | 29891 ft | 440 kts | 262° |
| 2026-04-25 22:03 | 31.09999 | -86.60352 | 29888 ft | 452 kts | 262° |
| 2026-04-25 22:03 | 31.09450 | -86.64003 | 29883 ft | 456 kts | 262° |
| 2026-04-25 22:04 | 31.08376 | -86.71110 | 29891 ft | 430 kts | 262° |
| 2026-04-25 22:04 | 31.07349 | -86.77830 | 29892 ft | 414 kts | 262° |
| 2026-04-25 22:05 | 31.06343 | -86.84363 | 29886 ft | 404 kts | 262° |
| 2026-04-25 22:05 | 31.05349 | -86.90816 | 29886 ft | 406 kts | 262° |
| 2026-04-25 22:06 | 31.04344 | -86.97356 | 29881 ft | 413 kts | 263° |
| 2026-04-25 22:06 | 31.03330 | -87.03969 | 29871 ft | 415 kts | 263° |
| 2026-04-25 22:07 | 31.02486 | -87.09484 | 29869 ft | 415 kts | 263° |
| 2026-04-25 22:07 | 31.01303 | -87.17225 | 29872 ft | 415 kts | 263° |
| 2026-04-25 22:08 | 31.00292 | -87.23851 | 29873 ft | 415 kts | 263° |
| 2026-04-25 22:08 | 30.99283 | -87.30479 | 29880 ft | 415 kts | 263° |
| 2026-04-25 22:09 | 30.98444 | -87.35997 | 29880 ft | 416 kts | 263° |
| 2026-04-25 22:09 | 30.97270 | -87.43733 | 29886 ft | 418 kts | 263° |
| 2026-04-25 22:10 | 30.96260 | -87.50398 | 29883 ft | 418 kts | 263° |
| 2026-04-25 22:10 | 30.95414 | -87.55984 | 29891 ft | 418 kts | 263° |
| 2026-04-25 22:11 | 30.94404 | -87.62650 | 29891 ft | 418 kts | 263° |
| 2026-04-25 22:11 | 30.93402 | -87.69272 | 29881 ft | 418 kts | 263° |
| 2026-04-25 22:12 | 30.92391 | -87.75958 | 29892 ft | 420 kts | 264° |
| 2026-04-25 22:12 | 30.91548 | -87.81546 | 29888 ft | 422 kts | 264° |
| 2026-04-25 22:13 | 30.90364 | -87.89417 | 29887 ft | 422 kts | 264° |
| 2026-04-25 22:13 | 30.89352 | -87.96156 | 29890 ft | 422 kts | 264° |
| 2026-04-25 22:14 | 30.88342 | -88.02891 | 29887 ft | 422 kts | 264° |
| 2026-04-25 22:14 | 30.87335 | -88.09613 | 29879 ft | 422 kts | 263° |
| 2026-04-25 22:15 | 30.86341 | -88.16254 | 29885 ft | 416 kts | 263° |
| 2026-04-25 22:16 | 30.84562 | -88.26120 | 29888 ft | 418 kts | 255° |
| 2026-04-25 22:16 | 30.81877 | -88.32011 | 29832 ft | 403 kts | 238° |
| 2026-04-25 22:16 | 30.80172 | -88.34566 | 29419 ft | 398 kts | 236° |
| 2026-04-25 22:17 | 30.78434 | -88.37061 | 28902 ft | 394 kts | 236° |
| 2026-04-25 22:17 | 30.76730 | -88.39491 | 28428 ft | 390 kts | 236° |
| 2026-04-25 22:17 | 30.75025 | -88.41922 | 27960 ft | 386 kts | 236° |
| 2026-04-25 22:17 | 30.73339 | -88.44328 | 27491 ft | 382 kts | 236° |
| 2026-04-25 22:18 | 30.71669 | -88.46712 | 27023 ft | 378 kts | 236° |
| 2026-04-25 22:18 | 30.70021 | -88.49067 | 26583 ft | 374 kts | 236° |
| 2026-04-25 22:18 | 30.68383 | -88.51405 | 26141 ft | 371 kts | 236° |
| 2026-04-25 22:18 | 30.66762 | -88.53718 | 25706 ft | 368 kts | 235° |
| 2026-04-25 22:19 | 30.65157 | -88.56009 | 25280 ft | 364 kts | 235° |
| 2026-04-25 22:19 | 30.63565 | -88.58279 | 24865 ft | 361 kts | 235° |
| 2026-04-25 22:19 | 30.62005 | -88.60537 | 24541 ft | 354 kts | 238° |
| 2026-04-25 22:19 | 30.60690 | -88.62904 | 24248 ft | 344 kts | 245° |
| 2026-04-25 22:20 | 30.59568 | -88.65334 | 23975 ft | 341 kts | 246° |
| 2026-04-25 22:20 | 30.58475 | -88.67803 | 23718 ft | 348 kts | 247° |
| 2026-04-25 22:20 | 30.57356 | -88.70340 | 23442 ft | 355 kts | 246° |
| 2026-04-25 22:20 | 30.56226 | -88.72895 | 23185 ft | 359 kts | 246° |
| 2026-04-25 22:21 | 30.55075 | -88.75486 | 22909 ft | 362 kts | 246° |
| 2026-04-25 22:21 | 30.53899 | -88.78135 | 22755 ft | 382 kts | 246° |
| 2026-04-25 22:21 | 30.52645 | -88.80963 | 22640 ft | 406 kts | 246° |
| 2026-04-25 22:21 | 30.51311 | -88.83961 | 22517 ft | 427 kts | 246° |
| 2026-04-25 22:22 | 30.49952 | -88.86995 | 22389 ft | 417 kts | 246° |
| 2026-04-25 22:22 | 30.48631 | -88.89937 | 22250 ft | 406 kts | 246° |
| 2026-04-25 22:22 | 30.47354 | -88.92783 | 22068 ft | 398 kts | 246° |
| 2026-04-25 22:22 | 30.46096 | -88.95589 | 21766 ft | 386 kts | 246° |
| 2026-04-25 22:23 | 30.44875 | -88.98309 | 21453 ft | 375 kts | 246° |
| 2026-04-25 22:23 | 30.43691 | -89.00951 | 21148 ft | 365 kts | 246° |
| 2026-04-25 22:23 | 30.42535 | -89.03527 | 20839 ft | 355 kts | 246° |
| 2026-04-25 22:23 | 30.41407 | -89.06041 | 20547 ft | 347 kts | 246° |
| 2026-04-25 22:24 | 30.40372 | -89.08522 | 20274 ft | 338 kts | 250° |
| 2026-04-25 22:24 | 30.39446 | -89.10986 | 19965 ft | 330 kts | 251° |
| 2026-04-25 22:24 | 30.38541 | -89.13452 | 19689 ft | 334 kts | 251° |
| 2026-04-25 22:24 | 30.37616 | -89.15985 | 19526 ft | 355 kts | 251° |
| 2026-04-25 22:25 | 30.36612 | -89.18740 | 19377 ft | 387 kts | 250° |
| 2026-04-25 22:25 | 30.35551 | -89.21623 | 19219 ft | 398 kts | 250° |
| 2026-04-25 22:25 | 30.34453 | -89.24590 | 19052 ft | 404 kts | 250° |
| 2026-04-25 22:25 | 30.33342 | -89.27588 | 18900 ft | 408 kts | 250° |
| 2026-04-25 22:26 | 30.32216 | -89.30622 | 18743 ft | 406 kts | 250° |
| 2026-04-25 22:26 | 30.31115 | -89.33583 | 18577 ft | 396 kts | 250° |
| 2026-04-25 22:26 | 30.30038 | -89.36480 | 18419 ft | 388 kts | 250° |
| 2026-04-25 22:26 | 30.28977 | -89.39336 | 18251 ft | 381 kts | 250° |
| 2026-04-25 22:27 | 30.27962 | -89.42062 | 18084 ft | 365 kts | 250° |
| 2026-04-25 22:27 | 30.26962 | -89.44749 | 17887 ft | 354 kts | 250° |
| 2026-04-25 22:27 | 30.26007 | -89.47314 | 17696 ft | 340 kts | 251° |
| 2026-04-25 22:27 | 30.25084 | -89.49793 | 17412 ft | 331 kts | 251° |
| 2026-04-25 22:28 | 30.24197 | -89.52176 | 17104 ft | 323 kts | 251° |
| 2026-04-25 22:28 | 30.23320 | -89.54531 | 16770 ft | 315 kts | 251° |
| 2026-04-25 22:28 | 30.22461 | -89.56835 | 16475 ft | 309 kts | 251° |
| 2026-04-25 22:28 | 30.21621 | -89.59090 | 16174 ft | 302 kts | 251° |
| 2026-04-25 22:29 | 30.20867 | -89.61318 | 15874 ft | 294 kts | 257° |
| 2026-04-25 22:29 | 30.20375 | -89.63580 | 15580 ft | 287 kts | 261° |
| 2026-04-25 22:29 | 30.19960 | -89.65805 | 15292 ft | 282 kts | 262° |
| 2026-04-25 22:30 | 30.19197 | -89.70269 | 14730 ft | 298 kts | 262° |
| 2026-04-25 22:30 | 30.18813 | -89.72592 | 14450 ft | 291 kts | 262° |
| 2026-04-25 22:30 | 30.18436 | -89.74870 | 14170 ft | 286 kts | 262° |
| 2026-04-25 22:30 | 30.18191 | -89.76359 | 13983 ft | 282 kts | 262° |
| 2026-04-25 22:31 | 30.17706 | -89.79320 | 13617 ft | 278 kts | 263° |
| 2026-04-25 22:31 | 30.17349 | -89.81502 | 13299 ft | 274 kts | 262° |
| 2026-04-25 22:31 | 30.16997 | -89.83649 | 12995 ft | 271 kts | 262° |
| 2026-04-25 22:31 | 30.16647 | -89.85786 | 12681 ft | 268 kts | 262° |
| 2026-04-25 22:32 | 30.16306 | -89.87868 | 12381 ft | 265 kts | 262° |
| 2026-04-25 22:32 | 30.15960 | -89.89976 | 12064 ft | 262 kts | 262° |
| 2026-04-25 22:32 | 30.15628 | -89.92000 | 11785 ft | 258 kts | 262° |
| 2026-04-25 22:32 | 30.15291 | -89.94054 | 11486 ft | 255 kts | 262° |
| 2026-04-25 22:33 | 30.14961 | -89.96066 | 11214 ft | 272 kts | 262° |
| 2026-04-25 22:33 | 30.14590 | -89.98360 | 11022 ft | 293 kts | 262° |
| 2026-04-25 22:33 | 30.14217 | -90.00609 | 10998 ft | 276 kts | 261° |
| 2026-04-25 22:33 | 30.13863 | -90.02726 | 10932 ft | 263 kts | 261° |
| 2026-04-25 22:34 | 30.13523 | -90.04775 | 10704 ft | 257 kts | 261° |
| 2026-04-25 22:34 | 30.13190 | -90.06790 | 10468 ft | 253 kts | 261° |
| 2026-04-25 22:34 | 30.12862 | -90.08766 | 10246 ft | 251 kts | 261° |
| 2026-04-25 22:34 | 30.12533 | -90.10757 | 10016 ft | 253 kts | 261° |
| 2026-04-25 22:35 | 30.12201 | -90.12771 | 9783 ft | 257 kts | 261° |
| 2026-04-25 22:35 | 30.11865 | -90.14804 | 9525 ft | 258 kts | 261° |
| 2026-04-25 22:35 | 30.11525 | -90.16849 | 9267 ft | 259 kts | 261° |
| 2026-04-25 22:35 | 30.11184 | -90.18898 | 8917 ft | 261 kts | 261° |
| 2026-04-25 22:36 | 30.10840 | -90.20966 | 8573 ft | 264 kts | 261° |
| 2026-04-25 22:36 | 30.10492 | -90.23051 | 8227 ft | 265 kts | 261° |
| 2026-04-25 22:36 | 30.10143 | -90.25146 | 7890 ft | 267 kts | 260° |
| 2026-04-25 22:36 | 30.09795 | -90.27227 | 7558 ft | 267 kts | 260° |
| 2026-04-25 22:37 | 30.09442 | -90.29333 | 7219 ft | 265 kts | 260° |
| 2026-04-25 22:37 | 30.09093 | -90.31415 | 6897 ft | 263 kts | 260° |
| 2026-04-25 22:37 | 30.08747 | -90.33481 | 6555 ft | 261 kts | 260° |
| 2026-04-25 22:37 | 30.08404 | -90.35527 | 6224 ft | 258 kts | 259° |
| 2026-04-25 22:38 | 30.08065 | -90.37544 | 5875 ft | 254 kts | 259° |
| 2026-04-25 22:38 | 30.07731 | -90.39538 | 5529 ft | 252 kts | 259° |
| 2026-04-25 22:38 | 30.07399 | -90.41513 | 5177 ft | 250 kts | 259° |
| 2026-04-25 22:38 | 30.07068 | -90.43476 | 4818 ft | 249 kts | 259° |
| 2026-04-25 22:39 | 30.06738 | -90.45436 | 4455 ft | 248 kts | 259° |
| 2026-04-25 22:39 | 30.06409 | -90.47389 | 4110 ft | 246 kts | 259° |
| 2026-04-25 22:39 | 30.06088 | -90.49289 | 3998 ft | 235 kts | 259° |
| 2026-04-25 22:39 | 30.05784 | -90.51088 | 3992 ft | 221 kts | 259° |
| 2026-04-25 22:40 | 30.05459 | -90.52770 | 3977 ft | 208 kts | 252° |
| 2026-04-25 22:40 | 30.04786 | -90.54197 | 3996 ft | 209 kts | 229° |
| 2026-04-25 22:40 | 30.03572 | -90.55149 | 4003 ft | 221 kts | 200° |
| 2026-04-25 22:40 | 30.01998 | -90.55249 | 4005 ft | 235 kts | 168° |
| 2026-04-25 22:41 | 30.00593 | -90.54320 | 3993 ft | 233 kts | 134° |
| 2026-04-25 22:41 | 29.99860 | -90.52711 | 3986 ft | 227 kts | 101° |
| 2026-04-25 22:41 | 29.99907 | -90.50891 | 3978 ft | 231 kts | 78° |
| 2026-04-25 22:41 | 30.00314 | -90.49071 | 3706 ft | 236 kts | 73° |
| 2026-04-25 22:42 | 30.00795 | -90.47230 | 3273 ft | 242 kts | 73° |
| 2026-04-25 22:42 | 30.01282 | -90.45354 | 2840 ft | 245 kts | 73° |
| 2026-04-25 22:42 | 30.01760 | -90.43472 | 2398 ft | 244 kts | 74° |
| 2026-04-25 22:42 | 30.02229 | -90.41587 | 2087 ft | 242 kts | 75° |
| 2026-04-25 22:43 | 30.02482 | -90.39767 | 2142 ft | 216 kts | 92° |
| 2026-04-25 22:43 | 30.02216 | -90.38223 | 2105 ft | 187 kts | 110° |
| 2026-04-25 22:43 | 30.01834 | -90.36837 | 1912 ft | 173 kts | 108° |
| 2026-04-25 22:43 | 30.01503 | -90.35599 | 1801 ft | 151 kts | 110° |
| 2026-04-25 22:44 | 30.01206 | -90.34457 | 1651 ft | 153 kts | 107° |
| 2026-04-25 22:44 | 30.00905 | -90.33250 | 1290 ft | 159 kts | 107° |
| 2026-04-25 22:44 | 30.00609 | -90.32028 | 915 ft | 153 kts | 105° |
| 2026-04-25 22:44 | 30.00344 | -90.30901 | 722 ft | 140 kts | 108° |
| 2026-04-25 22:45 | 30.00066 | -90.29778 | 525 ft | 146 kts | 107° |
| 2026-04-25 22:45 | 29.99796 | -90.28677 | 195 ft | 142 kts | 108° |
| 2026-04-25 22:45 | 29.99539 | -90.27634 | 18 ft | 128 kts | 110° |
| 2026-04-25 22:45 | 29.99351 | -90.26844 | 17 ft | 54 kts | 105° |
| 2026-04-25 22:46 | 29.99282 | -90.26589 | 19 ft | 30 kts | 115° |
| 2026-04-25 22:46 | 29.99155 | -90.26492 | 16 ft | 22 kts | 145° |
| 2026-04-25 22:46 | 29.99097 | -90.26324 | 15 ft | 25 kts | 107° |
| 2026-04-25 22:46 | 29.99051 | -90.26128 | 16 ft | 25 kts | 102° |
| 2026-04-25 22:47 | 29.99000 | -90.25943 | 17 ft | 25 kts | 111° |
| 2026-04-25 22:47 | 29.98950 | -90.25746 | 21 ft | 26 kts | 102° |
| 2026-04-25 22:47 | 29.98906 | -90.25529 | 18 ft | 30 kts | 108° |
| 2026-04-25 22:47 | 29.98813 | -90.25416 | 18 ft | 16 kts | 172° |
| 2026-04-25 22:48 | 29.98721 | -90.25426 | 19 ft | 9 kts | 179° |
| 2026-04-25 22:48 | 29.98686 | -90.25396 | 18 ft | 6 kts | 126° |
| 2026-04-25 22:48 | 29.98673 | -90.25377 | 18 ft | 0 kts | 127° |
| 2026-04-25 22:49 | 30.01178 | -90.34348 | 1630 ft | 158 kts | 108° |
| 2026-04-25 22:49 | 30.01126 | -90.34147 | 1589 ft | 156 kts | 108° |
| 2026-04-25 22:49 | 30.00809 | -90.32863 | 1148 ft | 159 kts | 108° |
| 2026-04-25 22:49 | 30.00575 | -90.31884 | 887 ft | 151 kts | 105° |
| 2026-04-25 22:50 | 30.00313 | -90.30774 | 701 ft | 140 kts | 107° |
| 2026-04-25 22:50 | 29.99994 | -90.29501 | 429 ft | 145 kts | 109° |
| 2026-04-25 22:50 | 29.99729 | -90.28408 | 140 ft | 138 kts | 109° |
| 2026-04-25 22:50 | 29.99490 | -90.27438 | 12 ft | 123 kts | 104° |
| 2026-04-25 22:51 | 29.99808 | -90.28727 | 211 ft | 142 kts | 109° |
| 2026-04-25 22:51 | 29.99596 | -90.27883 | 39 ft | 133 kts | 107° |
| 2026-04-25 22:52 | 29.99461 | -90.27308 | 13 ft | 118 kts | 104° |
| 2026-04-25 22:52 | 29.99791 | -90.28654 | 181 ft | 141 kts | 108° |
| 2026-04-25 22:52 | 29.99576 | -90.27794 | 28 ft | 131 kts | 106° |
| 2026-04-25 22:52 | 29.99491 | -90.27443 | 13 ft | 124 kts | 104° |
| 2026-04-25 22:53 | 29.99359 | -90.26882 | 18 ft | 64 kts | 105° |